• Join FlightAware (Why Join?)
  • Login
  • US Flag 
11:42PM EDT


 

Airport Tracker/Info


-or-


 

Live Flight TrackerFlight Track Log ✈ A7-BAE ✈ 11-May-2012 ✈ VTBS / BKK - OTBD / DOH

Flight Track Log - Related Links

Times and Time Zones

All times are in EDT time to prevent confusion due to time zone crossing. See the A7-BAE flight status page for this flight to view local times or setup timezone preferences in your user account.

Time Position Orientation Groundspeed Altitude Reporting Facility
EDT Latitude Longitude Course Direction KTS MPH feet Rate Location/Type
03:49PM 14.3197 99.0915 291° West  Level Estimated
03:50PM 14.3665 98.9688 291° West  Level Estimated
03:51PM 14.4132 98.8460 291° West  Level Estimated
03:52PM 14.4598 98.7232 291° West  Level Estimated
03:53PM 14.5063 98.6003 291° West  Level Estimated
03:54PM 14.5528 98.4774 291° West  Level Estimated
03:55PM 14.5992 98.3544 291° West  Level Estimated
03:56PM 14.6456 98.2314 291° West  Level Estimated
03:57PM 14.6919 98.1083 291° West  Level Estimated
03:58PM 14.7381 97.9852 291° West  Level Estimated
03:59PM 14.7843 97.8620 291° West  Level Estimated
04:00PM 14.8304 97.7388 291° West  Level Estimated
04:01PM 14.8764 97.6155 291° West  Level Estimated
04:02PM 14.9224 97.4922 291° West  Level Estimated
04:03PM 14.9683 97.3688 291° West  Level Estimated
04:04PM 15.0141 97.2453 291° West  Level Estimated
04:05PM 15.0599 97.1218 291° West  Level Estimated
04:06PM 15.1056 96.9983 291° West  Level Estimated
04:07PM 15.1512 96.8747 291° West  Level Estimated
04:08PM 15.1968 96.7510 291° West  Level Estimated
04:09PM 15.2423 96.6273 291° West  Level Estimated
04:10PM 15.2877 96.5036 291° West  Level Estimated
04:11PM 15.3331 96.3798 291° West  Level Estimated
04:12PM 15.3784 96.2559 291° West  Level Estimated
04:13PM 15.4236 96.1320 291° West  Level Estimated
04:14PM 15.4687 96.0080 291° West  Level Estimated
04:15PM 15.5138 95.8839 291° West  Level Estimated
04:16PM 15.5589 95.7599 291° West  Level Estimated
04:17PM 15.6038 95.6357 291° West  Level Estimated
04:18PM 15.6487 95.5115 291° West  Level Estimated
04:19PM 15.6935 95.3873 291° West  Level Estimated
04:20PM 15.7382 95.2630 290° West  Level Estimated
04:21PM 15.7829 95.1386 290° West  Level Estimated
04:22PM 15.8275 95.0142 290° West  Level Estimated
04:23PM 15.8720 94.8897 290° West  Level Estimated
04:24PM 15.9165 94.7652 290° West  Level Estimated
04:25PM 15.9609 94.6406 290° West  Level Estimated
04:26PM 16.0052 94.5160 290° West  Level Estimated
04:27PM 16.0494 94.3913 290° West  Level Estimated
04:28PM 16.0936 94.2665 290° West  Level Estimated
04:29PM 16.1377 94.1417 290° West  Level Estimated
04:30PM 16.1817 94.0169 290° West  Level Estimated
04:31PM 16.2257 93.8920 290° West  Level Estimated
04:32PM 16.2695 93.7670 290° West  Level Estimated
04:33PM 16.3134 93.6420 290° West  Level Estimated
04:34PM 16.3571 93.5169 290° West  Level Estimated
04:35PM 16.4007 93.3918 290° West  Level Estimated
04:36PM 16.4443 93.2666 290° West  Level Estimated
04:37PM 16.4878 93.1413 290° West  Level Estimated
04:38PM 16.5313 93.0160 290° West  Level Estimated
04:39PM 16.5746 92.8907 290° West  Level Estimated
04:40PM 16.6179 92.7653 290° West  Level Estimated
04:41PM 16.6611 92.6398 290° West  Level Estimated
04:42PM 16.7042 92.5143 290° West  Level Estimated
04:43PM 16.7473 92.3887 290° West  Level Estimated
04:44PM 16.7903 92.2630 290° West  Level Estimated
04:45PM 16.8332 92.1373 290° West  Level Estimated
04:46PM 16.8760 92.0116 290° West  Level Estimated
04:47PM 16.9188 91.8858 290° West  Level Estimated
04:48PM 16.9614 91.7599 289° West  Level Estimated
04:49PM 17.0040 91.6340 289° West  Level Estimated
04:50PM 17.0466 91.5080 289° West  Level Estimated
04:51PM 17.0890 91.3819 289° West  Level Estimated
04:52PM 17.1314 91.2558 289° West  Level Estimated
04:53PM 17.1737 91.1297 289° West  Level Estimated
04:54PM 17.2159 91.0034 289° West  Level Estimated
04:55PM 17.2580 90.8772 289° West  Level Estimated
04:56PM 17.3001 90.7508 289° West  Level Estimated
04:57PM 17.3420 90.6245 289° West  Level Estimated
04:58PM 17.3839 90.4980 289° West  Level Estimated
04:59PM 17.4257 90.3715 289° West  Level Estimated
05:00PM 17.4674 90.2449 289° West  Level Estimated
05:01PM 17.5091 90.1183 289° West  Level Estimated
05:02PM 17.5507 89.9917 289° West  Level Estimated
05:03PM 17.5922 89.8649 289° West  Level Estimated
05:04PM 17.6336 89.7381 289° West  Level Estimated
05:05PM 17.6749 89.6113 289° West  Level Estimated
05:06PM 17.7162 89.4844 289° West  Level Estimated
05:07PM 17.7573 89.3574 289° West  Level Estimated
05:08PM 17.7984 89.2304 289° West  Level Estimated
05:09PM 17.8394 89.1033 289° West  Level Estimated
05:10PM 17.8803 88.9761 289° West  Level Estimated
05:11PM 17.9212 88.8489 289° West  Level Estimated
05:12PM 17.9619 88.7217 289° West  Level Estimated
05:13PM 18.0026 88.5944 289° West  Level Estimated
05:14PM 18.0432 88.4670 289° West  Level Estimated
05:15PM 18.0837 88.3395 288° West  Level Estimated
05:16PM 18.1241 88.2120 288° West  Level Estimated
05:17PM 18.1645 88.0845 288° West  Level Estimated
05:18PM 18.2047 87.9569 288° West  Level Estimated
05:19PM 18.2449 87.8292 288° West  Level Estimated
05:20PM 18.2850 87.7015 288° West  Level Estimated
05:21PM 18.3250 87.5737 288° West  Level Estimated
05:22PM 18.3649 87.4458 288° West  Level Estimated
05:23PM 18.4047 87.3179 288° West  Level Estimated
05:24PM 18.4445 87.1899 288° West  Level Estimated
05:25PM 18.4841 87.0619 288° West  Level Estimated
05:26PM 18.5237 86.9338 288° West  Level Estimated
05:27PM 18.5632 86.8057 288° West  Level Estimated
05:28PM 18.6026 86.6775 288° West  Level Estimated
05:29PM 18.6419 86.5492 288° West  Level Estimated
05:30PM 18.6811 86.4209 288° West  Level Estimated
05:31PM 18.7203 86.2925 288° West  Level Estimated
05:32PM 18.7593 86.1641 288° West  Level Estimated
05:33PM 18.7983 86.0356 288° West  Level Estimated
05:34PM 18.8372 85.9070 288° West  Level Estimated
05:35PM 18.8759 85.7784 288° West  Level Estimated
05:36PM 18.9146 85.6497 288° West  Level Estimated
05:37PM 18.9533 85.5210 288° West  Level Estimated
05:38PM 18.9918 85.3922 288° West  Level Estimated
05:39PM 19.0302 85.2633 287° West  Level Estimated
05:40PM 19.0686 85.1344 287° West  Level Estimated
05:41PM 19.1068 85.0054 287° West  Level Estimated
05:42PM 19.1450 84.8764 287° West  Level Estimated
05:43PM 19.1830 84.7473 287° West  Level Estimated
05:44PM 19.2210 84.6181 287° West  Level Estimated
05:45PM 19.2589 84.4889 287° West  Level Estimated
05:46PM 19.2967 84.3596 287° West  Level Estimated
05:47PM 19.3344 84.2303 287° West  Level Estimated
05:48PM 19.3720 84.1009 287° West  Level Estimated
05:49PM 19.4096 83.9714 287° West  Level Estimated
05:50PM 19.4470 83.8419 287° West  Level Estimated
05:51PM 19.4844 83.7123 287° West  Level Estimated
05:52PM 19.5216 83.5827 287° West  Level Estimated
05:53PM 19.5588 83.4530 287° West  Level Estimated
05:54PM 19.5958 83.3233 287° West  Level Estimated
05:55PM 19.6328 83.1934 287° West  Level Estimated
05:56PM 19.6697 83.0636 287° West  Level Estimated
05:57PM 19.7065 82.9336 287° West  Level Estimated
05:58PM 19.7432 82.8036 287° West  Level Estimated
05:59PM 19.7798 82.6736 287° West  Level Estimated
06:00PM 19.8163 82.5435 287° West  Level Estimated
06:01PM 19.8527 82.4133 287° West  Level Estimated
06:02PM 19.8890 82.2831 286° West  Level Estimated
06:03PM 19.9252 82.1528 286° West  Level Estimated
06:04PM 19.9614 82.0225 286° West  Level Estimated
06:05PM 19.9974 81.8920 286° West  Level Estimated
06:06PM 20.0333 81.7616 286° West  Level Estimated
06:07PM 20.0692 81.6310 286° West  Level Estimated
06:08PM 20.1049 81.5005 286° West  Level Estimated
06:09PM 20.1406 81.3698 286° West  Level Estimated
06:10PM 20.1761 81.2391 286° West  Level Estimated
06:11PM 20.2116 81.1083 286° West  Level Estimated
06:12PM 20.2469 80.9775 286° West  Level Estimated
06:13PM 20.2822 80.8466 286° West  Level Estimated
06:14PM 20.3174 80.7157 286° West  Level Estimated
06:15PM 20.3524 80.5847 286° West  Level Estimated
06:16PM 20.3874 80.4536 286° West  Level Estimated
06:17PM 20.4223 80.3225 286° West  Level Estimated
06:18PM 20.4571 80.1913 286° West  Level Estimated
06:19PM 20.4917 80.0601 286° West  Level Estimated
06:20PM 20.5263 79.9287 286° West  Level Estimated
06:21PM 20.5608 79.7974 286° West  Level Estimated
06:22PM 20.5952 79.6660 286° West  Level Estimated
06:23PM 20.6294 79.5345 286° West  Level Estimated
06:24PM 20.6636 79.4029 285° West  Level Estimated
06:25PM 20.6977 79.2713 285° West  Level Estimated
06:26PM 20.7317 79.1397 285° West  Level Estimated
06:27PM 20.7656 79.0080 285° West  Level Estimated
06:28PM 20.7994 78.8762 285° West  Level Estimated
06:29PM 20.8330 78.7444 285° West  Level Estimated
06:30PM 20.8666 78.6125 285° West  Level Estimated
06:31PM 20.9001 78.4805 285° West  Level Estimated
06:32PM 20.9335 78.3485 285° West  Level Estimated
06:33PM 20.9667 78.2164 285° West  Level Estimated
06:34PM 20.9999 78.0843 285° West  Level Estimated
06:35PM 21.0330 77.9521 285° West  Level Estimated
06:36PM 21.0660 77.8199 285° West  Level Estimated
06:37PM 21.0988 77.6876 285° West  Level Estimated
06:38PM 21.1316 77.5552 285° West  Level Estimated
06:39PM 21.1642 77.4228 285° West  Level Estimated
06:40PM 21.1968 77.2903 285° West  Level Estimated
06:41PM 21.2292 77.1578 285° West  Level Estimated
06:42PM 21.2616 77.0252 285° West  Level Estimated
06:43PM 21.2938 76.8925 285° West  Level Estimated
06:44PM 21.3260 76.7598 285° West  Level Estimated
06:45PM 21.3580 76.6271 285° West  Level Estimated
06:46PM 21.3900 76.4942 284° West  Level Estimated
06:47PM 21.4218 76.3614 284° West  Level Estimated
06:48PM 21.4535 76.2284 284° West  Level Estimated
06:49PM 21.4851 76.0954 284° West  Level Estimated
06:50PM 21.5167 75.9623 284° West  Level Estimated
06:51PM 21.5481 75.8292 284° West  Level Estimated
06:52PM 21.5794 75.6961 284° West  Level Estimated
06:53PM 21.6106 75.5628 284° West  Level Estimated
06:54PM 21.6417 75.4295 284° West  Level Estimated
06:55PM 21.6726 75.2962 284° West  Level Estimated
06:56PM 21.7035 75.1628 284° West  Level Estimated
06:57PM 21.7343 75.0293 284° West  Level Estimated
06:58PM 21.7650 74.8958 284° West  Level Estimated
06:59PM 21.7955 74.7623 284° West  Level Estimated
07:00PM 21.8260 74.6286 284° West  Level Estimated
07:01PM 21.8563 74.4949 284° West  Level Estimated
07:02PM 21.8866 74.3612 284° West  Level Estimated
07:03PM 21.9167 74.2274 284° West  Level Estimated
07:04PM 21.9467 74.0935 284° West  Level Estimated
07:05PM 21.9766 73.9596 284° West  Level Estimated
07:06PM 22.0064 73.8256 283° West  Level Estimated
07:07PM 22.0361 73.6916 283° West  Level Estimated
07:08PM 22.0657 73.5575 283° West  Level Estimated
07:09PM 22.0951 73.4234 283° West  Level Estimated
07:10PM 22.1245 73.2892 283° West  Level Estimated
07:11PM 22.1538 73.1550 283° West  Level Estimated
07:12PM 22.1829 73.0207 283° West  Level Estimated
07:13PM 22.2120 72.8863 283° West  Level Estimated
07:14PM 22.2409 72.7519 283° West  Level Estimated
07:15PM 22.2697 72.6174 283° West  Level Estimated
07:16PM 22.2984 72.4829 283° West  Level Estimated
07:17PM 22.3270 72.3483 283° West  Level Estimated
07:18PM 22.3555 72.2137 283° West  Level Estimated
07:19PM 22.3838 72.0790 283° West  Level Estimated
07:20PM 22.4121 71.9442 283° West  Level Estimated
07:21PM 22.4402 71.8094 283° West  Level Estimated
07:22PM 22.4683 71.6745 283° West  Level Estimated
07:23PM 22.4962 71.5396 283° West  Level Estimated
07:24PM 22.5240 71.4046 283° West  Level Estimated
07:25PM 22.5517 71.2696 282° West  Level Estimated
07:26PM 22.5793 71.1346 282° West  Level Estimated
07:27PM 22.6068 70.9994 282° West  Level Estimated
07:28PM 22.6341 70.8642 282° West  Level Estimated
07:29PM 22.6614 70.7290 282° West  Level Estimated
07:30PM 22.6885 70.5937 282° West  Level Estimated
07:31PM 22.7155 70.4584 282° West  Level Estimated
07:32PM 22.7424 70.3230 282° West  Level Estimated
07:33PM 22.7692 70.1875 282° West  Level Estimated
07:34PM 22.7959 70.0520 282° West  Level Estimated
07:35PM 22.8225 69.9165 282° West  Level Estimated
07:36PM 22.8489 69.7809 282° West  Level Estimated
07:37PM 22.8752 69.6452 282° West  Level Estimated
07:38PM 22.9015 69.5095 282° West  Level Estimated
07:39PM 22.9276 69.3737 282° West  Level Estimated
07:40PM 22.9536 69.2379 282° West  Level Estimated
07:41PM 22.9794 69.1020 282° West  Level Estimated
07:42PM 23.0052 68.9661 282° West  Level Estimated
07:43PM 23.0308 68.8301 282° West  Level Estimated
07:44PM 23.0563 68.6941 282° West  Level Estimated
07:45PM 23.0818 68.5580 281° West  Level Estimated
07:46PM 23.1070 68.4219 281° West  Level Estimated
07:47PM 23.1322 68.2857 281° West  Level Estimated
07:48PM 23.1573 68.1495 281° West  Level Estimated
07:49PM 23.1822 68.0132 281° West  Level Estimated
07:50PM 23.2070 67.8769 281° West  Level Estimated
07:51PM 23.2317 67.7405 281° West  Level Estimated
07:52PM 23.2563 67.6041 281° West  Level Estimated
07:53PM 23.2808 67.4676 281° West  Level Estimated
07:54PM 23.3051 67.3310 281° West  Level Estimated
07:55PM 23.3294 67.1945 281° West  Level Estimated
07:56PM 23.3535 67.0578 281° West  Level Estimated
07:57PM 23.3775 66.9211 281° West  Level Estimated
07:58PM 23.4014 66.7844 281° West  Level Estimated
07:59PM 23.4251 66.6476 281° West  Level Estimated
08:00PM 23.4487 66.5108 281° West  Level Estimated
08:01PM 23.4723 66.3739 281° West  Level Estimated
08:02PM 23.4957 66.2370 281° West  Level Estimated
08:03PM 23.5189 66.1000 280° West  Level Estimated
08:04PM 23.5421 65.9630 280° West  Level Estimated
08:05PM 23.5651 65.8259 280° West  Level Estimated
08:06PM 23.5881 65.6888 280° West  Level Estimated
08:07PM 23.6109 65.5516 280° West  Level Estimated
08:08PM 23.6336 65.4144 280° West  Level Estimated
08:09PM 23.6561 65.2772 280° West  Level Estimated
08:10PM 23.6786 65.1398 280° West  Level Estimated
08:11PM 23.7009 65.0025 280° West  Level Estimated
08:12PM 23.7231 64.8651 280° West  Level Estimated
08:13PM 23.7451 64.7276 280° West  Level Estimated
08:14PM 23.7671 64.5901 280° West  Level Estimated
08:15PM 23.7889 64.4526 280° West  Level Estimated
08:16PM 23.8106 64.3150 280° West  Level Estimated
08:17PM 23.8322 64.1773 280° West  Level Estimated
08:18PM 23.8537 64.0396 280° West  Level Estimated
08:19PM 23.8750 63.9019 280° West  Level Estimated
08:20PM 23.8962 63.7641 280° West  Level Estimated
08:21PM 23.9173 63.6263 279° West  Level Estimated
08:22PM 23.9383 63.4885 279° West  Level Estimated
08:23PM 23.9591 63.3506 279° West  Level Estimated
08:24PM 23.9799 63.2126 279° West  Level Estimated
08:25PM 24.0005 63.0746 279° West  Level Estimated
08:26PM 24.0209 62.9366 279° West  Level Estimated
08:27PM 24.0413 62.7985 279° West  Level Estimated
08:28PM 24.0615 62.6604 279° West  Level Estimated
08:29PM 24.0816 62.5222 279° West  Level Estimated
08:30PM 24.1016 62.3840 279° West  Level Estimated
08:31PM 24.1215 62.2457 279° West  Level Estimated
08:32PM 24.1412 62.1074 279° West  Level Estimated
08:33PM 24.1608 61.9691 279° West  Level Estimated
08:34PM 24.1803 61.8307 279° West  Level Estimated
08:35PM 24.1997 61.6922 279° West  Level Estimated
08:36PM 24.2189 61.5538 279° West  Level Estimated
08:37PM 24.2380 61.4153 279° West  Level Estimated
08:38PM 24.2570 61.2767 279° West  Level Estimated
08:39PM 24.2759 61.1381 278° West  Level Estimated
08:40PM 24.2946 60.9995 278° West  Level Estimated
08:41PM 24.3132 60.8608 278° West  Level Estimated
08:42PM 24.3317 60.7221 278° West  Level Estimated
08:43PM 24.3500 60.5833 278° West  Level Estimated
08:44PM 24.3683 60.4445 278° West  Level Estimated
08:45PM 24.3864 60.3057 278° West  Level Estimated
08:46PM 24.4044 60.1668 278° West  Level Estimated
08:47PM 24.4222 60.0279 278° West  Level Estimated
08:48PM 24.4399 59.8889 278° West  Level Estimated
08:49PM 24.4575 59.7499 278° West  Level Estimated
08:50PM 24.4750 59.6109 278° West  Level Estimated
08:51PM 24.4923 59.4718 278° West  Level Estimated
08:52PM 24.5095 59.3327 278° West  Level Estimated
08:53PM 24.5266 59.1936 278° West  Level Estimated
08:54PM 24.5436 59.0544 278° West  Level Estimated
08:55PM 24.5604 58.9152 278° West  Level Estimated
08:56PM 24.5771 58.7759 277° West  Level Estimated
08:57PM 24.5937 58.6366 277° West  Level Estimated
08:58PM 24.6101 58.4973 277° West  Level Estimated
08:59PM 24.6265 58.3579 277° West  Level Estimated
09:00PM 24.6427 58.2185 277° West  Level Estimated
09:01PM 24.6587 58.0791 277° West  Level Estimated
09:02PM 24.6747 57.9396 277° West  Level Estimated
09:03PM 24.6905 57.8001 277° West  Level Estimated
09:04PM 24.7061 57.6605 277° West  Level Estimated
09:05PM 24.7217 57.5210 277° West  Level Estimated
09:06PM 24.7371 57.3813 277° West  Level Estimated
09:07PM 24.7524 57.2417 277° West  Level Estimated
09:08PM 24.7675 57.1020 277° West  Level Estimated
09:09PM 24.7826 56.9623 277° West  Level Estimated
09:10PM 24.7975 56.8225 277° West  Level Estimated
09:11PM 24.8123 56.6827 277° West  Level Estimated
09:12PM 24.8269 56.5429 277° West  Level Estimated
09:13PM 24.8414 56.4031 276° West  Level Estimated
09:14PM 24.8558 56.2632 276° West  Level Estimated
09:15PM 24.8700 56.1232 276° West  Level Estimated
09:16PM 24.8841 55.9833 276° West  Level Estimated
09:17PM 24.8981 55.8433 276° West  Level Estimated
09:18PM 24.9120 55.7033 276° West  Level Estimated
09:19PM 24.9257 55.5633 276° West  Level Estimated
09:20PM 24.9393 55.4232 276° West  Level Estimated
09:21PM 24.9528 55.2831 276° West  Level Estimated
09:22PM 24.9661 55.1429 276° West  Level Estimated
09:23PM 24.9793 55.0028 276° West  Level Estimated
09:24PM 24.9924 54.8625 276° West  Level Estimated
09:25PM 25.0053 54.7223 276° West  Level Estimated
09:26PM 25.0181 54.5821 276° West  Level Estimated
09:27PM 25.0308 54.4418 276° West  Level Estimated
09:28PM 25.0433 54.3014 276° West  Level Estimated
09:29PM 25.0557 54.1611 276° West  Level Estimated
09:30PM 25.0680 54.0207 275° West  Level Estimated
09:31PM 25.0802 53.8803 275° West  Level Estimated
09:32PM 25.0922 53.7399 275° West  Level Estimated
09:33PM 25.1041 53.5994 275° West  Level Estimated
09:34PM 25.1158 53.4590 275° West  Level Estimated
09:35PM 25.1275 53.3185 275° West  Level Estimated
09:36PM 25.1389 53.1779 275° West  Level Estimated
09:37PM 25.1503 53.0373 275° West  Level Estimated
09:38PM 25.1615 52.8968 275° West  Level Estimated
09:39PM 25.1726 52.7561 275° West  Level Estimated
09:40PM 25.1836 52.6155 275° West  Level Estimated
09:41PM 25.1944 52.4748 275° West  Level Estimated
09:42PM 25.2051 52.3341 275° West  Level Estimated
09:43PM 25.2156 52.1934 275° West  Level Estimated
09:45PM 25.2363 51.9119 275° West  Level Estimated
09:46PM 25.2465 51.7711 275° West  Level Estimated
09:47PM 25.2565 51.6303 274° West  Level Estimated
09:48PM 25.2664 51.4895 94° East  Level Estimated
09:49PM 25.2565 51.6303 274° West  Level Estimated
09:50PM 25.2664 51.4895 94° East  Level Estimated
09:51PM 25.2565 51.6303 274° West  Level Estimated
09:52PM 25.2664 51.4895 94° East  Level Estimated
09:53PM 25.2565 51.6303 274° West  Level Estimated
09:54PM 25.2664 51.4895 94° East  Level Estimated
09:55PM 25.2565 51.6303 274° West  Level Estimated
09:56PM 25.2664 51.4895 94° East  Level Estimated
09:57PM 25.2565 51.6303 274° West  Level Estimated
09:58PM 25.2664 51.4895 94° East  Level Estimated
09:59PM 25.2565 51.6303 274° West  Level Estimated
10:00PM 25.2664 51.4895 94° East  Level Estimated
10:01PM 25.2565 51.6303 94° East  Level Estimated